Time;durP1;ratioP1;P1;durP2;ratioP2;P2;SDS_P1;SDS_P2;PMS_P1;PMS_P2;Temp;Humidity;BMP_temperature;BMP_pressure;BME280_temperature;BME280_humidity;BME280_pressure;Samples;Min_cycle;Max_cycle;Signal;HPM_P1;HPM_P2
2023/05/22 00:01:31;;;;;;;1.40;1.33;;;;;14.20;95669.00;;;;5055172;28;20196;-58
2023/05/22 00:03:58;;;;;;;2.07;1.97;;;;;14.10;95670.00;;;;5054796;28;20212;-58
2023/05/22 00:06:26;;;;;;;2.23;2.13;;;;;14.20;95660.00;;;;5037353;28;20224;-58
2023/05/22 00:08:53;;;;;;;1.83;1.73;;;;;14.20;95662.00;;;;5054795;28;20253;-57
2023/05/22 00:11:21;;;;;;;2.70;2.50;;;;;14.10;95663.00;;;;5054702;28;20242;-58
2023/05/22 00:13:50;;;;;;;1.90;1.60;;;;;14.20;95666.00;;;;5054484;28;20196;-58
2023/05/22 00:16:18;;;;;;;2.63;2.17;;;;;14.20;95655.00;;;;5054923;28;20187;-57
2023/05/22 00:18:45;;;;;;;2.20;2.00;;;;;14.20;95651.00;;;;5054600;28;20192;-58
2023/05/22 00:21:12;;;;;;;0.90;0.90;;;;;14.30;95654.00;;;;5054538;28;20257;-58
2023/05/22 00:23:40;;;;;;;1.83;1.73;;;;;14.20;95660.00;;;;5054891;28;20651;-58
2023/05/22 00:26:07;;;;;;;1.37;1.30;;;;;14.10;95656.00;;;;5054642;28;20250;-58
2023/05/22 00:28:34;;;;;;;3.10;2.53;;;;;14.20;95654.00;;;;5054393;28;20218;-58
2023/05/22 00:31:04;;;;;;;1.33;1.23;;;;;14.20;95664.00;;;;5054621;28;20196;-58
2023/05/22 00:33:32;;;;;;;4.07;2.07;;;;;14.20;95650.00;;;;5054497;28;20559;-58
2023/05/22 00:36:00;;;;;;;1.87;1.77;;;;;14.20;95652.00;;;;5054277;28;20552;-58
2023/05/22 00:38:29;;;;;;;2.07;1.97;;;;;14.10;95651.00;;;;5054179;28;20192;-58
2023/05/22 00:40:57;;;;;;;2.07;1.97;;;;;14.00;95648.00;;;;5054125;28;20246;-58
2023/05/22 00:43:25;;;;;;;2.13;2.03;;;;;13.90;95648.00;;;;5054084;28;20193;-58
2023/05/22 00:45:52;;;;;;;1.43;1.33;;;;;13.80;95647.00;;;;5054266;28;20216;-58
2023/05/22 00:48:21;;;;;;;3.70;2.40;;;;;13.70;95644.00;;;;5054032;28;20191;-58
2023/05/22 00:50:49;;;;;;;2.00;1.90;;;;;13.80;95643.00;;;;5053981;28;20196;-58
2023/05/22 00:53:19;;;;;;;3.07;2.87;;;;;13.90;95642.00;;;;5053957;28;20199;-58
2023/05/22 00:55:47;;;;;;;1.97;1.87;;;;;13.80;95646.00;;;;5053794;28;20227;-58
2023/05/22 00:58:17;;;;;;;2.17;2.07;;;;;13.80;95647.00;;;;5053831;28;20822;-58
2023/05/22 01:00:46;;;;;;;3.37;2.93;;;;;13.70;95652.00;;;;5054098;28;20189;-58
2023/05/22 01:03:14;;;;;;;4.43;2.63;;;;;13.60;95644.00;;;;5053782;28;20192;-58
2023/05/22 01:05:44;;;;;;;1.80;1.70;;;;;13.50;95647.00;;;;5053625;28;20223;-58
2023/05/22 01:08:11;;;;;;;2.50;2.27;;;;;13.50;95654.00;;;;5053496;28;20772;-57
2023/05/22 01:10:40;;;;;;;4.40;1.87;;;;;13.60;95651.00;;;;5053593;28;20725;-58
2023/05/22 01:13:17;;;;;;;2.27;2.07;;;;;13.70;95646.00;;;;5053885;28;20199;-58
2023/05/22 01:15:49;;;;;;;2.43;2.03;;;;;13.70;95650.00;;;;5053546;28;20230;-58
2023/05/22 01:18:28;;;;;;;1.30;1.20;;;;;13.80;95651.00;;;;5053830;28;20591;-58
2023/05/22 01:21:08;;;;;;;3.00;2.70;;;;;13.70;95646.00;;;;5054049;28;20692;-58
2023/05/22 01:24:24;;;;;;;1.70;1.60;;;;;13.60;95653.00;;;;5053391;28;20212;-58
2023/05/22 01:27:24;;;;;;;2.17;2.07;;;;;13.60;95650.00;;;;5053329;28;20200;-57
2023/05/22 01:30:03;;;;;;;2.60;1.73;;;;;13.50;95650.00;;;;5053670;28;20184;-58
2023/05/22 01:32:34;;;;;;;2.30;2.20;;;;;13.50;95649.00;;;;5053407;28;20204;-57
2023/05/22 01:35:05;;;;;;;2.33;2.17;;;;;13.60;95652.00;;;;5053328;28;20212;-57
2023/05/22 01:37:33;;;;;;;1.00;1.00;;;;;13.70;95657.00;;;;5053335;28;20183;-58
2023/05/22 01:40:05;;;;;;;1.87;1.77;;;;;13.60;95657.00;;;;5053305;28;20200;-58
2023/05/22 01:42:33;;;;;;;2.73;2.13;;;;;13.60;95658.00;;;;5053327;28;20191;-58
2023/05/22 01:45:00;;;;;;;1.77;1.67;;;;;13.60;95659.00;;;;5053403;28;20216;-58
2023/05/22 01:47:28;;;;;;;1.33;1.33;;;;;13.50;95657.00;;;;5053280;28;20690;-58
2023/05/22 01:49:57;;;;;;;2.03;1.93;;;;;13.40;95653.00;;;;5053173;28;20195;-58
2023/05/22 01:52:33;;;;;;;2.67;2.27;;;;;13.30;95661.00;;;;5053171;28;20250;-58
2023/05/22 01:55:06;;;;;;;2.07;1.93;;;;;13.20;95660.00;;;;5053363;28;20571;-57
2023/05/22 01:57:42;;;;;;;1.00;1.00;;;;;13.30;95656.00;;;;5053157;28;20172;-57
2023/05/22 02:00:15;;;;;;;1.67;1.57;;;;;13.20;95653.00;;;;5053673;28;20233;-58
2023/05/22 02:02:47;;;;;;;2.40;2.20;;;;;13.20;95658.00;;;;5053053;28;20187;-57
2023/05/22 02:05:18;;;;;;;2.80;2.60;;;;;13.20;95655.00;;;;5052977;28;20220;-58
2023/05/22 02:07:47;;;;;;;2.20;2.00;;;;;13.10;95654.00;;;;5053276;28;20254;-58
2023/05/22 02:10:16;;;;;;;1.63;1.53;;;;;13.20;95657.00;;;;5053491;28;20192;-57
2023/05/22 02:12:44;;;;;;;1.97;1.87;;;;;13.10;95661.00;;;;5052919;28;20674;-58
2023/05/22 02:15:12;;;;;;;1.57;1.47;;;;;13.20;95655.00;;;;5067632;22;20586;-55
2023/05/22 02:17:40;;;;;;;1.80;1.70;;;;;13.20;95664.00;;;;5052877;28;20246;-55
2023/05/22 02:20:13;;;;;;;1.60;1.50;;;;;13.10;95668.00;;;;5055084;28;20682;-55
2023/05/22 02:22:44;;;;;;;2.80;2.60;;;;;13.10;95674.00;;;;5057330;28;20187;-55
2023/05/22 02:25:13;;;;;;;2.80;1.97;;;;;13.10;95673.00;;;;5056981;28;20220;-55
2023/05/22 02:27:41;;;;;;;2.40;2.20;;;;;13.20;95666.00;;;;5057149;28;20220;-55
2023/05/22 02:30:10;;;;;;;1.00;1.00;;;;;13.10;95659.00;;;;5056769;28;20192;-55
2023/05/22 02:32:38;;;;;;;1.00;1.00;;;;;13.00;95665.00;;;;5056612;28;20247;-55
2023/05/22 02:35:06;;;;;;;2.10;2.00;;;;;13.00;95660.00;;;;5056451;28;20216;-55
2023/05/22 02:37:34;;;;;;;2.07;1.97;;;;;12.90;95656.00;;;;5056420;28;20195;-55
2023/05/22 02:40:04;;;;;;;3.13;2.13;;;;;12.90;95657.00;;;;5057205;28;20200;-56
2023/05/22 02:42:32;;;;;;;1.30;1.23;;;;;12.90;95654.00;;;;5056704;28;20184;-56
2023/05/22 02:45:00;;;;;;;2.20;2.03;;;;;12.90;95652.00;;;;5057314;28;20583;-56
2023/05/22 02:47:27;;;;;;;2.40;2.17;;;;;12.90;95654.00;;;;5056189;28;20239;-56
2023/05/22 02:49:56;;;;;;;1.33;1.33;;;;;12.80;95653.00;;;;5056531;28;20188;-56
2023/05/22 02:52:24;;;;;;;2.43;2.17;;;;;12.70;95662.00;;;;5056705;28;20203;-55
2023/05/22 02:54:52;;;;;;;2.03;1.93;;;;;12.50;95667.00;;;;5056085;28;20302;-55
2023/05/22 02:57:20;;;;;;;1.50;1.40;;;;;12.50;95664.00;;;;5056294;28;20599;-55
2023/05/22 02:59:48;;;;;;;1.77;1.67;;;;;12.50;95665.00;;;;5054753;28;20246;-56
2023/05/22 03:02:16;;;;;;;1.77;1.67;;;;;12.50;95668.00;;;;5054718;28;20683;-56
2023/05/22 03:04:44;;;;;;;1.27;1.27;;;;;12.60;95657.00;;;;5056016;28;20215;-56
2023/05/22 03:07:11;;;;;;;4.13;2.70;;;;;12.60;95653.00;;;;5055787;28;20306;-56
2023/05/22 03:09:39;;;;;;;1.90;1.80;;;;;12.60;95657.00;;;;5055817;28;20279;-56
2023/05/22 03:12:07;;;;;;;1.97;1.77;;;;;12.70;95653.00;;;;5056328;28;20195;-56
2023/05/22 03:14:36;;;;;;;2.13;2.03;;;;;12.70;95650.00;;;;5055944;28;20270;-56
2023/05/22 03:17:03;;;;;;;1.97;1.87;;;;;12.80;95660.00;;;;5055960;28;20196;-56
2023/05/22 03:19:30;;;;;;;2.10;2.00;;;;;12.70;95656.00;;;;5055939;28;20242;-56
2023/05/22 03:21:58;;;;;;;3.90;2.07;;;;;12.70;95656.00;;;;5055625;28;20188;-56
2023/05/22 03:24:26;;;;;;;2.30;2.20;;;;;12.50;95652.00;;;;5055525;28;20212;-56
2023/05/22 03:26:53;;;;;;;2.97;1.77;;;;;12.40;95647.00;;;;5055501;28;20206;-56
2023/05/22 03:29:20;;;;;;;1.20;1.17;;;;;12.30;95651.00;;;;5055609;28;20188;-56
2023/05/22 03:31:49;;;;;;;1.87;1.77;;;;;12.20;95654.00;;;;5054666;28;20242;-56
2023/05/22 03:34:16;;;;;;;1.80;1.70;;;;;12.40;95663.00;;;;5055618;28;20196;-56
2023/05/22 03:36:44;;;;;;;2.03;1.93;;;;;12.40;95659.00;;;;5055319;28;20659;-56
2023/05/22 03:39:12;;;;;;;1.60;1.50;;;;;12.50;95662.00;;;;5055440;28;20241;-56
2023/05/22 03:41:39;;;;;;;2.33;2.13;;;;;12.50;95661.00;;;;5055557;28;20188;-55
2023/05/22 03:44:07;;;;;;;1.83;1.73;;;;;12.70;95670.00;;;;5055140;28;20197;-56
2023/05/22 03:46:34;;;;;;;3.17;2.67;;;;;12.70;95656.00;;;;5055141;28;20200;-56
2023/05/22 03:49:03;;;;;;;2.47;2.23;;;;;12.60;95649.00;;;;5055244;28;20567;-56
2023/05/22 03:51:31;;;;;;;1.90;1.80;;;;;12.70;95660.00;;;;5055239;28;20196;-56
2023/05/22 03:53:58;;;;;;;2.33;1.90;;;;;12.60;95660.00;;;;5055036;28;20204;-56
2023/05/22 03:56:26;;;;;;;3.60;1.40;;;;;12.50;95664.00;;;;5055082;28;20227;-56
2023/05/22 03:58:53;;;;;;;1.67;1.57;;;;;12.50;95663.00;;;;5054891;28;20188;-56
2023/05/22 04:01:20;;;;;;;1.27;1.20;;;;;12.50;95667.00;;;;5055422;28;20188;-56
2023/05/22 04:03:48;;;;;;;1.80;1.70;;;;;12.30;95671.00;;;;5055031;28;20203;-56
2023/05/22 04:06:20;;;;;;;1.30;1.30;;;;;12.40;95678.00;;;;5054904;28;20622;-56
2023/05/22 04:08:47;;;;;;;2.23;1.90;;;;;12.30;95666.00;;;;5054711;28;20785;-56
2023/05/22 04:11:15;;;;;;;2.03;1.80;;;;;12.30;95670.00;;;;5054617;28;20227;-56
2023/05/22 04:13:43;;;;;;;1.83;1.70;;;;;12.50;95669.00;;;;5054619;28;20245;-56
2023/05/22 04:16:10;;;;;;;2.07;1.97;;;;;12.50;95672.00;;;;5054399;28;20224;-56
2023/05/22 04:18:37;;;;;;;2.70;1.77;;;;;12.50;95676.00;;;;5054841;28;20571;-56
2023/05/22 04:21:08;;;;;;;5.30;1.33;;;;;12.50;95671.00;;;;5054704;28;20674;-56
2023/05/22 04:23:37;;;;;;;2.27;2.17;;;;;12.50;95673.00;;;;5054494;28;20294;-56
2023/05/22 04:26:04;;;;;;;6.27;2.17;;;;;12.70;95673.00;;;;5053811;28;20330;-56
2023/05/22 04:28:33;;;;;;;1.63;1.53;;;;;12.70;95674.00;;;;5054548;28;20713;-56
2023/05/22 04:31:01;;;;;;;1.43;1.43;;;;;12.70;95674.00;;;;5054227;28;20250;-56
2023/05/22 04:33:29;;;;;;;1.93;1.83;;;;;12.70;95675.00;;;;5054193;28;20196;-55
2023/05/22 04:35:56;;;;;;;2.10;1.63;;;;;12.80;95673.00;;;;5054086;28;20223;-56
2023/05/22 04:38:25;;;;;;;1.97;1.87;;;;;12.80;95668.00;;;;5054066;28;20206;-56
2023/05/22 04:40:53;;;;;;;1.80;1.70;;;;;12.80;95671.00;;;;5053720;28;20192;-56
2023/05/22 04:43:22;;;;;;;3.27;2.90;;;;;12.90;95677.00;;;;5053922;28;20659;-56
2023/05/22 04:45:50;;;;;;;2.10;2.00;;;;;12.90;95679.00;;;;5054146;28;20568;-56
2023/05/22 04:48:18;;;;;;;2.57;2.37;;;;;13.00;95678.00;;;;5052521;28;20219;-56
2023/05/22 04:50:46;;;;;;;2.40;2.07;;;;;13.00;95672.00;;;;5054132;28;20525;-56
2023/05/22 04:53:13;;;;;;;2.37;2.27;;;;;13.10;95682.00;;;;5052551;28;20242;-55
2023/05/22 04:55:40;;;;;;;1.87;1.77;;;;;13.20;95671.00;;;;5054239;28;20270;-55
2023/05/22 04:58:09;;;;;;;1.70;1.60;;;;;13.30;95678.00;;;;5053749;28;20655;-55
2023/05/22 05:00:37;;;;;;;2.30;1.47;;;;;13.40;95669.00;;;;5053981;28;20557;-58
2023/05/22 05:03:06;;;;;;;2.00;1.73;;;;;13.40;95674.00;;;;5053673;28;20207;-56
2023/05/22 05:05:34;;;;;;;1.87;1.77;;;;;13.40;95672.00;;;;5053531;28;20216;-58
2023/05/22 05:08:01;;;;;;;2.07;1.90;;;;;13.50;95672.00;;;;5053464;28;20247;-56
2023/05/22 05:10:29;;;;;;;1.80;1.70;;;;;13.40;95676.00;;;;5054035;28;20196;-55
2023/05/22 05:12:56;;;;;;;3.27;3.07;;;;;13.50;95685.00;;;;5053726;28;20199;-56
2023/05/22 05:15:26;;;;;;;3.73;2.23;;;;;13.50;95682.00;;;;5052884;28;20228;-57
2023/05/22 05:17:53;;;;;;;2.53;2.07;;;;;13.60;95684.00;;;;5052709;28;20376;-56
2023/05/22 05:20:21;;;;;;;3.53;2.57;;;;;13.70;95678.00;;;;5053224;28;20196;-57
2023/05/22 05:22:48;;;;;;;1.63;1.50;;;;;13.90;95677.00;;;;5052648;28;20215;-55
2023/05/22 05:25:16;;;;;;;1.47;1.37;;;;;14.00;95680.00;;;;5052637;28;20212;-57
2023/05/22 05:27:43;;;;;;;1.40;1.37;;;;;14.20;95674.00;;;;5052396;28;20192;-57
2023/05/22 05:30:11;;;;;;;1.83;1.73;;;;;14.30;95674.00;;;;5052475;28;20246;-56
2023/05/22 05:32:39;;;;;;;2.07;1.97;;;;;14.40;95680.00;;;;5052352;28;20192;-56
2023/05/22 05:35:07;;;;;;;1.87;1.77;;;;;14.50;95679.00;;;;5052400;28;20698;-56
2023/05/22 05:37:35;;;;;;;2.00;1.90;;;;;14.60;95675.00;;;;5052382;28;20192;-56
2023/05/22 05:40:05;;;;;;;1.70;1.60;;;;;14.70;95676.00;;;;5052353;28;20284;-56
2023/05/22 05:42:32;;;;;;;2.30;2.10;;;;;14.70;95672.00;;;;5052417;28;20192;-55
2023/05/22 05:44:59;;;;;;;2.43;1.67;;;;;14.70;95667.00;;;;5052581;28;20265;-56
2023/05/22 05:47:28;;;;;;;1.30;1.20;;;;;14.70;95684.00;;;;5052287;28;20192;-56
2023/05/22 05:49:57;;;;;;;1.00;1.00;;;;;14.80;95684.00;;;;5052139;28;20254;-56
2023/05/22 05:52:25;;;;;;;1.97;1.87;;;;;14.80;95685.00;;;;5052981;28;20203;-56
2023/05/22 05:54:53;;;;;;;3.50;3.27;;;;;14.90;95674.00;;;;5054994;28;20218;-61
2023/05/22 05:57:20;;;;;;;3.60;3.03;;;;;15.10;95686.00;;;;5056055;28;20195;-56
2023/05/22 05:59:48;;;;;;;1.87;1.77;;;;;15.20;95669.00;;;;5056114;28;20267;-59
2023/05/22 06:02:15;;;;;;;1.10;1.10;;;;;15.30;95681.00;;;;5055690;28;20658;-58
2023/05/22 06:04:47;;;;;;;2.47;2.27;;;;;15.30;95674.00;;;;5055862;28;20691;-57
2023/05/22 06:07:16;;;;;;;3.20;1.27;;;;;15.40;95677.00;;;;5055606;28;20195;-59
2023/05/22 06:09:43;;;;;;;1.40;1.40;;;;;15.60;95685.00;;;;5055788;28;20216;-56
2023/05/22 06:12:12;;;;;;;2.93;2.73;;;;;15.80;95688.00;;;;5055806;28;20246;-57
2023/05/22 06:14:39;;;;;;;2.77;2.57;;;;;16.00;95690.00;;;;5018944;28;1049518;-56
2023/05/22 06:17:08;;;;;;;2.03;1.93;;;;;16.20;95696.00;;;;5056813;28;20185;-56
2023/05/22 06:19:35;;;;;;;1.77;1.67;;;;;16.30;95691.00;;;;5057010;28;20535;-57
2023/05/22 06:22:02;;;;;;;4.83;2.77;;;;;16.40;95687.00;;;;5056713;28;20201;-57
2023/05/22 06:24:32;;;;;;;2.27;2.07;;;;;16.60;95703.00;;;;5056594;28;20215;-56
2023/05/22 06:27:00;;;;;;;1.43;1.33;;;;;16.50;95696.00;;;;5056563;28;20202;-57
2023/05/22 06:29:27;;;;;;;1.67;1.57;;;;;16.50;95694.00;;;;5055188;28;20702;-56
2023/05/22 06:31:55;;;;;;;3.30;2.70;;;;;16.60;95702.00;;;;5056498;28;20199;-57
2023/05/22 06:34:22;;;;;;;2.00;1.83;;;;;16.60;95702.00;;;;5053182;28;20801;-56
2023/05/22 06:36:50;;;;;;;1.70;1.60;;;;;16.50;95697.00;;;;5052443;28;20204;-57
2023/05/22 06:39:18;;;;;;;1.73;1.63;;;;;16.70;95703.00;;;;5064090;28;20208;-58
2023/05/22 06:41:47;;;;;;;3.03;2.83;;;;;16.90;95695.00;;;;5056760;28;20682;-56
2023/05/22 06:44:14;;;;;;;2.00;1.80;;;;;17.10;95692.00;;;;5061139;28;20725;-56
2023/05/22 06:46:41;;;;;;;2.53;2.33;;;;;17.20;95700.00;;;;5067410;28;20675;-56
2023/05/22 06:49:09;;;;;;;3.03;2.67;;;;;17.40;95702.00;;;;5072340;28;20215;-57
2023/05/22 06:51:36;;;;;;;2.43;2.30;;;;;17.40;95691.00;;;;5073598;28;20203;-56
2023/05/22 06:54:05;;;;;;;1.80;1.70;;;;;17.60;95706.00;;;;5074255;28;20202;-57
2023/05/22 06:56:33;;;;;;;2.60;2.40;;;;;17.60;95704.00;;;;5073977;28;20227;-57
2023/05/22 06:59:02;;;;;;;2.63;2.43;;;;;17.80;95704.00;;;;5073941;28;20187;-56
2023/05/22 07:01:30;;;;;;;1.30;1.20;;;;;17.80;95705.00;;;;5074210;28;20202;-56
2023/05/22 07:03:59;;;;;;;1.93;1.83;;;;;17.90;95706.00;;;;5073249;28;20199;-57
2023/05/22 07:06:26;;;;;;;2.13;2.03;;;;;18.10;95711.00;;;;5072895;28;20219;-56
2023/05/22 07:08:54;;;;;;;2.00;1.67;;;;;18.00;95724.00;;;;5071437;28;20219;-57
2023/05/22 07:11:22;;;;;;;1.70;1.60;;;;;18.00;95715.00;;;;5070059;28;20207;-57
2023/05/22 07:13:49;;;;;;;2.10;2.00;;;;;18.10;95729.00;;;;5068718;28;20196;-57
2023/05/22 07:16:18;;;;;;;2.80;2.60;;;;;18.00;95732.00;;;;5053479;28;20220;-57
2023/05/22 07:18:46;;;;;;;1.90;1.80;;;;;18.20;95717.00;;;;5053917;28;20192;-56
2023/05/22 07:21:13;;;;;;;1.53;1.43;;;;;18.40;95724.00;;;;5053379;28;20192;-56
2023/05/22 07:23:41;;;;;;;1.57;1.47;;;;;18.40;95732.00;;;;5053983;28;20570;-56
2023/05/22 07:26:08;;;;;;;2.20;1.73;;;;;18.50;95725.00;;;;5052903;28;20218;-56
2023/05/22 07:28:36;;;;;;;1.40;1.30;;;;;18.50;95730.00;;;;5053633;28;20299;-57
2023/05/22 07:31:03;;;;;;;2.00;1.90;;;;;18.70;95731.00;;;;5053488;28;20211;-56
2023/05/22 07:33:32;;;;;;;4.43;2.67;;;;;18.80;95734.00;;;;5053661;28;20226;-56
2023/05/22 07:35:59;;;;;;;1.83;1.73;;;;;18.70;95732.00;;;;5048805;28;20226;-56
2023/05/22 07:38:27;;;;;;;3.60;2.03;;;;;18.80;95732.00;;;;5053344;28;20188;-56
2023/05/22 07:40:54;;;;;;;1.30;1.30;;;;;18.90;95736.00;;;;5053057;28;20279;-56
2023/05/22 07:43:22;;;;;;;7.00;2.07;;;;;18.80;95737.00;;;;5053803;28;20207;-56
2023/05/22 07:45:52;;;;;;;2.40;2.20;;;;;18.70;95736.00;;;;5053141;28;20223;-57
2023/05/22 07:48:20;;;;;;;1.43;1.33;;;;;18.60;95741.00;;;;5048983;28;20214;-56
2023/05/22 07:50:49;;;;;;;1.53;1.43;;;;;18.70;95734.00;;;;5052989;28;20282;-57
2023/05/22 07:53:16;;;;;;;1.67;1.57;;;;;18.90;95730.00;;;;5053085;28;20607;-56
2023/05/22 07:55:43;;;;;;;1.80;1.70;;;;;18.80;95743.00;;;;5053059;28;20250;-57
2023/05/22 07:58:11;;;;;;;2.13;2.03;;;;;18.80;95744.00;;;;5053056;28;20253;-56
2023/05/22 08:00:38;;;;;;;2.30;2.13;;;;;18.90;95747.00;;;;5053106;28;20196;-57
2023/05/22 08:03:06;;;;;;;3.47;1.97;;;;;18.90;95747.00;;;;5052727;28;20203;-58
2023/05/22 08:05:33;;;;;;;2.03;1.93;;;;;18.90;95749.00;;;;5049638;28;20219;-56
2023/05/22 08:08:02;;;;;;;2.20;2.00;;;;;19.00;95746.00;;;;5051145;28;20192;-58
2023/05/22 08:10:30;;;;;;;1.97;1.87;;;;;19.10;95748.00;;;;5052577;28;20306;-57
2023/05/22 08:13:01;;;;;;;1.87;1.77;;;;;19.20;95751.00;;;;5052916;28;20196;-57
2023/05/22 08:15:28;;;;;;;3.50;2.30;;;;;19.20;95745.00;;;;5078397;22;20223;-55
2023/05/22 08:17:55;;;;;;;3.67;2.57;;;;;19.20;95747.00;;;;5052413;28;20288;-55
2023/05/22 08:20:23;;;;;;;1.33;1.23;;;;;19.30;95748.00;;;;5052335;28;20584;-55
2023/05/22 08:22:50;;;;;;;16.93;2.43;;;;;19.50;95751.00;;;;5052800;28;20196;-55
2023/05/22 08:25:19;;;;;;;2.40;2.27;;;;;19.70;95742.00;;;;5051902;28;20216;-55
2023/05/22 08:27:47;;;;;;;1.23;1.23;;;;;19.90;95741.00;;;;5052956;28;20229;-55
2023/05/22 08:30:14;;;;;;;2.20;2.10;;;;;20.00;95749.00;;;;5051970;28;20569;-55
2023/05/22 08:32:42;;;;;;;2.00;1.87;;;;;20.00;95737.00;;;;5052539;28;20298;-55
2023/05/22 08:35:10;;;;;;;2.20;2.10;;;;;20.30;95747.00;;;;5050348;28;20621;-55
2023/05/22 08:37:37;;;;;;;2.35;2.15;;;;;20.50;95739.00;;;;5052388;28;20200;-55
2023/05/22 08:40:09;;;;;;;2.53;1.83;;;;;20.70;95735.00;;;;5051666;28;20194;-55
2023/05/22 08:42:53;;;;;;;2.55;2.00;;;;;20.90;95735.00;;;;5051117;28;20200;-55
2023/05/22 08:45:21;;;;;;;2.75;2.25;;;;;21.20;95735.00;;;;5051468;28;20216;-55
2023/05/22 08:47:54;;;;;;;1.73;1.63;;;;;21.20;95735.00;;;;5052285;28;20246;-55
2023/05/22 08:50:24;;;;;;;2.20;2.10;;;;;21.40;95730.00;;;;5051964;28;20200;-55
2023/05/22 08:52:56;;;;;;;2.45;2.25;;;;;21.40;95734.00;;;;5051925;28;20196;-55
2023/05/22 08:55:23;;;;;;;2.05;1.95;;;;;21.60;95729.00;;;;5051771;28;20220;-59
2023/05/22 08:57:53;;;;;;;1.73;1.63;;;;;21.50;95735.00;;;;5051733;28;20219;-54
2023/05/22 09:00:22;;;;;;;1.77;1.67;;;;;21.40;95731.00;;;;5051471;28;20188;-55
2023/05/22 09:02:51;;;;;;;1.35;1.35;;;;;21.50;95734.00;;;;5050802;28;20203;-55
2023/05/22 09:05:18;;;;;;;1.25;1.17;;;;;21.20;95733.00;;;;5051886;28;20639;-55
2023/05/22 09:07:47;;;;;;;2.00;1.90;;;;;20.70;95737.00;;;;5052001;28;20548;-55
2023/05/22 09:10:15;;;;;;;3.30;2.30;;;;;21.10;95733.00;;;;5051560;28;20230;-55
2023/05/22 09:13:02;;;;;;;2.45;2.25;;;;;21.40;95733.00;;;;5050294;28;20202;-55
2023/05/22 09:15:31;;;;;;;2.00;1.90;;;;;21.40;95734.00;;;;5051287;28;20219;-55
2023/05/22 09:17:58;;;;;;;2.28;2.08;;;;;21.30;95737.00;;;;5051811;28;20196;-55
2023/05/22 09:20:26;;;;;;;2.00;1.90;;;;;21.20;95734.00;;;;5051797;28;20199;-55
2023/05/22 09:22:54;;;;;;;2.78;1.85;;;;;21.20;95735.00;;;;5051757;28;20569;-55
2023/05/22 09:25:22;;;;;;;2.33;2.17;;;;;21.20;95734.00;;;;5049968;28;20223;-55
2023/05/22 09:27:49;;;;;;;1.80;1.70;;;;;21.10;95739.00;;;;5051420;28;20203;-55
2023/05/22 09:30:18;;;;;;;2.75;2.47;;;;;21.10;95738.00;;;;5051287;28;20293;-59
2023/05/22 09:32:48;;;;;;;2.70;2.55;;;;;21.30;95724.00;;;;5051277;28;20284;-55
2023/05/22 09:35:16;;;;;;;2.17;2.08;;;;;21.70;95723.00;;;;5051279;28;20243;-55
2023/05/22 09:37:43;;;;;;;2.55;2.35;;;;;22.00;95733.00;;;;5050819;28;20192;-54
2023/05/22 09:40:13;;;;;;;1.63;1.52;;;;;21.90;95732.00;;;;5051561;28;20210;-55
2023/05/22 09:42:44;;;;;;;1.58;1.50;;;;;22.00;95726.00;;;;5051387;28;20633;-55
2023/05/22 09:45:12;;;;;;;1.55;1.45;;;;;22.10;95714.00;;;;5049690;28;20231;-55
2023/05/22 09:47:41;;;;;;;2.38;2.03;;;;;22.40;95720.00;;;;5051018;28;20207;-55
2023/05/22 09:50:10;;;;;;;2.63;2.22;;;;;22.80;95722.00;;;;5050965;28;20269;-55
2023/05/22 09:52:38;;;;;;;2.13;1.95;;;;;22.80;95716.00;;;;5051143;28;20223;-55
2023/05/22 09:55:07;;;;;;;2.03;1.92;;;;;22.90;95717.00;;;;5050955;28;20216;-55
2023/05/22 09:57:43;;;;;;;1.40;1.40;;;;;22.90;95718.00;;;;5049593;28;20208;-55
2023/05/22 10:00:14;;;;;;;1.80;1.70;;;;;23.30;95719.00;;;;5050978;28;20184;-55
2023/05/22 10:02:45;;;;;;;1.63;1.52;;;;;23.30;95709.00;;;;5051206;28;20203;-55
2023/05/22 10:05:20;;;;;;;1.80;1.70;;;;;23.00;95717.00;;;;5051223;28;20629;-55
2023/05/22 10:07:50;;;;;;;3.80;2.97;;;;;23.30;95710.00;;;;5050937;28;20180;-55
2023/05/22 10:10:20;;;;;;;1.63;1.52;;;;;23.50;95708.00;;;;5051113;28;20695;-55
2023/05/22 10:12:52;;;;;;;2.55;2.35;;;;;23.60;95705.00;;;;5050453;28;20197;-55
2023/05/22 10:15:21;;;;;;;2.65;2.45;;;;;23.70;95715.00;;;;5050945;28;20239;-55
2023/05/22 10:17:50;;;;;;;1.52;1.42;;;;;24.10;95718.00;;;;5050839;28;20191;-55
2023/05/22 10:20:18;;;;;;;1.83;1.73;;;;;24.00;95705.00;;;;5048725;28;20203;-55
2023/05/22 10:22:48;;;;;;;1.35;1.25;;;;;24.10;95710.00;;;;5051011;28;20584;-55
2023/05/22 10:25:17;;;;;;;2.22;1.98;;;;;24.20;95708.00;;;;5049585;28;21974;-55
2023/05/22 10:27:45;;;;;;;3.80;1.88;;;;;24.20;95700.00;;;;5050695;28;20206;-55
2023/05/22 10:30:24;;;;;;;3.05;2.72;;;;;24.70;95692.00;;;;5050693;28;20220;-55
2023/05/22 10:32:57;;;;;;;2.10;2.00;;;;;24.90;95687.00;;;;5050666;28;20220;-55
2023/05/22 10:35:32;;;;;;;3.30;2.67;;;;;24.90;95695.00;;;;5050509;28;20212;-55
2023/05/22 10:38:14;;;;;;;1.35;1.33;;;;;25.10;95683.00;;;;5050645;28;20269;-55
2023/05/22 10:40:45;;;;;;;4.57;2.85;;;;;25.40;95685.00;;;;5053266;28;20677;-55
2023/05/22 10:43:12;;;;;;;4.00;2.35;;;;;25.30;95697.00;;;;5054350;28;20697;-55
2023/05/22 10:45:40;;;;;;;2.03;1.83;;;;;25.30;95683.00;;;;5054646;28;20250;-55
2023/05/22 10:48:11;;;;;;;1.85;1.75;;;;;26.00;95682.00;;;;5053002;28;20246;-55
2023/05/22 10:50:39;;;;;;;1.75;1.52;;;;;26.20;95676.00;;;;5054935;28;20243;-55
2023/05/22 10:53:23;;;;;;;1.70;1.60;;;;;26.60;95675.00;;;;5053360;28;20655;-55
2023/05/22 10:55:53;;;;;;;1.45;1.33;;;;;26.70;95670.00;;;;5053327;28;20222;-55
2023/05/22 10:58:27;;;;;;;1.67;1.58;;;;;26.90;95670.00;;;;5054187;28;20200;-55
2023/05/22 11:01:13;;;;;;;1.85;1.75;;;;;27.00;95675.00;;;;5054061;28;20655;-56
2023/05/22 11:03:59;;;;;;;2.05;1.65;;;;;27.30;95668.00;;;;5053619;28;20196;-54
2023/05/22 11:06:37;;;;;;;1.70;1.25;;;;;27.50;95667.00;;;;5054359;28;20234;-55
2023/05/22 11:09:40;;;;;;;1.77;1.67;;;;;27.50;95673.00;;;;5053866;28;20207;-54
2023/05/22 11:12:19;;;;;;;1.48;1.38;;;;;27.50;95654.00;;;;5054265;28;20188;-55
2023/05/22 11:14:54;;;;;;;2.50;1.90;;;;;27.80;95652.00;;;;5053313;28;20226;-56
2023/05/22 11:17:24;;;;;;;1.35;1.35;;;;;27.80;95658.00;;;;5053894;28;20191;-55
2023/05/22 11:20:04;;;;;;;2.35;1.77;;;;;28.00;95672.00;;;;5053792;28;20216;-55
2023/05/22 11:22:34;;;;;;;1.40;1.40;;;;;28.10;95657.00;;;;5053667;28;20279;-55
2023/05/22 11:25:05;;;;;;;1.63;1.52;;;;;28.20;95651.00;;;;5053701;28;20215;-55
2023/05/22 11:27:33;;;;;;;1.48;1.38;;;;;28.40;95659.00;;;;5053022;28;20199;-55
2023/05/22 11:30:01;;;;;;;3.20;1.70;;;;;28.40;95669.00;;;;5053785;28;20215;-55
2023/05/22 11:32:28;;;;;;;1.65;1.55;;;;;28.20;95659.00;;;;5052857;28;20200;-55
2023/05/22 11:34:57;;;;;;;1.83;1.73;;;;;28.10;95659.00;;;;5053558;28;20817;-55
2023/05/22 11:37:26;;;;;;;2.50;2.30;;;;;28.00;95664.00;;;;5053126;28;20283;-55
2023/05/22 11:39:57;;;;;;;1.67;1.58;;;;;27.60;95641.00;;;;5053307;28;20196;-55
2023/05/22 11:42:25;;;;;;;1.17;1.10;;;;;27.70;95638.00;;;;5053272;28;20197;-55
2023/05/22 11:44:52;;;;;;;2.17;1.98;;;;;27.60;95662.00;;;;5053030;28;20220;-56
2023/05/22 11:47:20;;;;;;;2.40;1.77;;;;;27.30;95664.00;;;;5052705;28;20219;-56
2023/05/22 11:49:48;;;;;;;2.00;1.85;;;;;26.90;95671.00;;;;5053360;28;20216;-56
2023/05/22 11:52:17;;;;;;;1.88;1.77;;;;;26.40;95672.00;;;;5051531;28;20223;-56
2023/05/22 11:54:47;;;;;;;1.60;1.50;;;;;26.10;95677.00;;;;5053291;28;20195;-55
2023/05/22 11:57:15;;;;;;;1.92;1.73;;;;;26.10;95684.00;;;;5051504;28;20207;-55
2023/05/22 11:59:46;;;;;;;4.10;1.98;;;;;26.00;95684.00;;;;5053524;28;20575;-55
2023/05/22 12:02:13;;;;;;;2.40;2.25;;;;;25.40;95694.00;;;;5052525;28;20188;-55
2023/05/22 12:04:41;;;;;;;1.95;1.80;;;;;25.10;95707.00;;;;5053154;28;20282;-55
2023/05/22 12:07:09;;;;;;;1.52;1.40;;;;;24.30;95710.00;;;;5051083;28;20200;-55
2023/05/22 12:09:39;;;;;;;1.88;1.77;;;;;23.80;95725.00;;;;5052923;28;20192;-55
2023/05/22 12:12:10;;;;;;;1.50;1.40;;;;;22.80;95711.00;;;;5049749;28;20730;-55
2023/05/22 12:14:37;;;;;;;6.25;1.77;;;;;22.60;95718.00;;;;5052208;28;20242;-56
2023/05/22 12:17:05;;;;;;;1.88;1.77;;;;;22.40;95731.00;;;;5052545;28;20199;-55
2023/05/22 12:19:33;;;;;;;2.05;1.77;;;;;22.60;95725.00;;;;5052510;28;20602;-55
2023/05/22 12:22:00;;;;;;;0.77;0.75;;;;;23.00;95725.00;;;;5052338;28;20651;-55
2023/05/22 12:24:39;;;;;;;2.42;2.22;;;;;22.90;95725.00;;;;5052305;28;20223;-55
2023/05/22 12:27:10;;;;;;;2.55;2.35;;;;;23.10;95726.00;;;;5052096;28;20199;-55
2023/05/22 12:29:38;;;;;;;2.22;1.88;;;;;22.70;95714.00;;;;5052752;28;20230;-55